createdAt,value
2016-12-02T00:00:03.502Z,1013.31
2016-12-02T00:00:42.279Z,1013.28
2016-12-02T00:01:21.058Z,1013.32
2016-12-02T00:01:59.837Z,1013.27
2016-12-02T00:02:38.613Z,1013.27
2016-12-02T00:03:17.387Z,1013.27
2016-12-02T00:03:56.166Z,1013.27
2016-12-02T00:04:34.952Z,1013.24
2016-12-02T00:05:13.732Z,1013.25
2016-12-02T00:05:52.508Z,1013.18
2016-12-02T00:06:31.286Z,1013.25
2016-12-02T00:07:10.064Z,1013.24
2016-12-02T00:07:48.845Z,1013.23
2016-12-02T00:08:27.637Z,1013.2
2016-12-02T00:09:06.414Z,1013.23
2016-12-02T00:09:45.197Z,1013.21
2016-12-02T00:10:23.975Z,1013.24
2016-12-02T00:11:02.752Z,1013.19
2016-12-02T00:11:41.526Z,1013.23
2016-12-02T00:12:20.304Z,1013.24
2016-12-02T00:12:59.081Z,1013.21
2016-12-02T00:13:37.861Z,1013.22
2016-12-02T00:14:16.639Z,1013.2
2016-12-02T00:14:55.414Z,1013.21
2016-12-02T00:15:34.190Z,1013.21
2016-12-02T00:16:12.963Z,1013.23
2016-12-02T00:16:51.736Z,1013.2
2016-12-02T00:17:30.513Z,1013.23
2016-12-02T00:18:09.291Z,1013.17
2016-12-02T00:18:48.073Z,1013.17
2016-12-02T00:19:26.845Z,1013.16
2016-12-02T00:20:05.618Z,1013.17
2016-12-02T00:20:44.401Z,1013.13
2016-12-02T00:21:23.177Z,1013.15
2016-12-02T00:22:01.958Z,1013.16
2016-12-02T00:22:40.736Z,1013.23
2016-12-02T00:23:19.514Z,1013.16
2016-12-02T00:23:58.314Z,1013.16
2016-12-02T00:24:37.090Z,1013.11
2016-12-02T00:25:15.864Z,1013.16
2016-12-02T00:25:54.634Z,1013.15
2016-12-02T00:26:33.407Z,1013.14
2016-12-02T00:27:12.184Z,1013.11
2016-12-02T00:27:50.956Z,1013.08
2016-12-02T00:28:29.733Z,1013.11
2016-12-02T00:29:08.510Z,1013.08
2016-12-02T00:29:47.282Z,1013.06
2016-12-02T00:30:26.057Z,1013.08
2016-12-02T00:31:04.834Z,1013.09
2016-12-02T00:31:43.613Z,1013.09
2016-12-02T00:32:22.387Z,1013.09
2016-12-02T00:33:01.166Z,1013.13
2016-12-02T00:33:39.945Z,1013.05
2016-12-02T00:34:18.749Z,1013.13
2016-12-02T00:35:04.129Z,1013.13
2016-12-02T00:35:42.906Z,1013.09
2016-12-02T00:36:22.035Z,1013.11
2016-12-02T00:37:00.810Z,1013.09
2016-12-02T00:37:39.584Z,1013.08
2016-12-02T00:38:18.361Z,1013.12
2016-12-02T00:38:57.132Z,1013.16
2016-12-02T00:39:36.263Z,1013.15
2016-12-02T00:40:15.041Z,1013.13
2016-12-02T00:40:53.816Z,1013.14
2016-12-02T00:41:32.595Z,1013.12
2016-12-02T00:42:11.372Z,1013.12
2016-12-02T00:42:50.147Z,1013.15
2016-12-02T00:43:28.920Z,1013.11
2016-12-02T00:44:07.699Z,1013.13
2016-12-02T00:44:46.480Z,1013.13
2016-12-02T00:45:25.254Z,1013.14
2016-12-02T00:46:04.067Z,1013.14
2016-12-02T00:46:42.841Z,1013.17
2016-12-02T00:47:21.617Z,1013.16
2016-12-02T00:48:00.391Z,1013.18
2016-12-02T00:48:39.519Z,1013.19
2016-12-02T00:49:18.299Z,1013.18
2016-12-02T00:49:57.072Z,1013.22
2016-12-02T00:50:35.851Z,1013.22
2016-12-02T00:51:14.624Z,1013.19
2016-12-02T00:51:53.397Z,1013.19
2016-12-02T00:52:32.168Z,1013.21
2016-12-02T00:53:10.943Z,1013.18
2016-12-02T00:53:49.718Z,1013.16
2016-12-02T00:54:28.493Z,1013.17
2016-12-02T00:55:07.276Z,1013.21
2016-12-02T00:55:46.055Z,1013.17
2016-12-02T00:56:24.832Z,1013.17
2016-12-02T00:57:03.606Z,1013.14
2016-12-02T00:57:42.385Z,1013.12
2016-12-02T00:58:21.159Z,1013.1
2016-12-02T00:58:59.934Z,1013.13
2016-12-02T00:59:38.710Z,1013.08
2016-12-02T01:00:17.501Z,1013.11
2016-12-02T01:00:56.279Z,1013.05
2016-12-02T01:01:35.057Z,1013.11
2016-12-02T01:02:13.837Z,1013.09
2016-12-02T01:02:52.621Z,1013.05
2016-12-02T01:03:31.395Z,1013.08
2016-12-02T01:04:10.172Z,1013.1
2016-12-02T01:04:48.950Z,1013.07
2016-12-02T01:05:27.758Z,1013.14
2016-12-02T01:06:06.536Z,1013.13
2016-12-02T01:06:45.314Z,1013.12
2016-12-02T01:07:24.109Z,1013.14
2016-12-02T01:08:02.887Z,1013.15
2016-12-02T01:08:41.664Z,1013.08
2016-12-02T01:09:20.440Z,1013.14
2016-12-02T01:09:59.219Z,1013.12
2016-12-02T01:10:37.996Z,1013.16
2016-12-02T01:11:16.778Z,1013.17
2016-12-02T01:11:55.640Z,1013.18
2016-12-02T01:12:34.414Z,1013.18
2016-12-02T01:13:13.190Z,1013.15
2016-12-02T01:13:51.972Z,1013.17
2016-12-02T01:14:30.752Z,1013.13
2016-12-02T01:15:09.537Z,1013.12
2016-12-02T01:15:48.314Z,1013.15
2016-12-02T01:16:27.092Z,1013.14
2016-12-02T01:17:05.878Z,1013.19
2016-12-02T01:17:44.653Z,1013.17
2016-12-02T01:18:23.431Z,1013.19
2016-12-02T01:19:02.233Z,1013.14
2016-12-02T01:19:41.011Z,1013.17
2016-12-02T01:20:19.785Z,1013.15
2016-12-02T01:20:58.558Z,1013.18
2016-12-02T01:21:37.334Z,1013.19
2016-12-02T01:22:16.111Z,1013.17
2016-12-02T01:22:54.885Z,1013.15
2016-12-02T01:23:33.667Z,1013.16
2016-12-02T01:24:12.449Z,1013.14
2016-12-02T01:24:51.233Z,1013.17
2016-12-02T01:25:30.007Z,1013.2
2016-12-02T01:26:08.782Z,1013.13
2016-12-02T01:26:47.561Z,1013.13
2016-12-02T01:27:26.336Z,1013.19
2016-12-02T01:28:05.113Z,1013.19
2016-12-02T01:28:43.889Z,1013.17
2016-12-02T01:29:22.693Z,1013.17
2016-12-02T01:30:01.470Z,1013.21
2016-12-02T01:30:40.253Z,1013.17
2016-12-02T01:31:19.033Z,1013.14
2016-12-02T01:31:57.812Z,1013.19
2016-12-02T01:32:36.592Z,1013.18
2016-12-02T01:33:15.394Z,1013.18
2016-12-02T01:33:54.169Z,1013.18
2016-12-02T01:34:32.947Z,1013.21
2016-12-02T01:35:11.736Z,1013.22
2016-12-02T01:35:50.544Z,1013.26
2016-12-02T01:36:29.321Z,1013.21
2016-12-02T01:37:08.099Z,1013.2
2016-12-02T01:37:46.895Z,1013.26
2016-12-02T01:38:25.674Z,1013.2
2016-12-02T01:39:04.459Z,1013.19
2016-12-02T01:39:43.235Z,1013.23
2016-12-02T01:40:22.038Z,1013.16
2016-12-02T01:41:00.814Z,1013.2
2016-12-02T01:41:39.594Z,1013.18
2016-12-02T01:42:18.403Z,1013.19
2016-12-02T01:42:57.180Z,1013.2
2016-12-02T01:43:35.954Z,1013.19
2016-12-02T01:44:14.732Z,1013.24
2016-12-02T01:44:53.508Z,1013.2
2016-12-02T01:45:32.289Z,1013.17
2016-12-02T01:46:11.067Z,1013.16
2016-12-02T01:46:49.849Z,1013.13
2016-12-02T01:47:28.625Z,1013.13
2016-12-02T01:48:07.402Z,1013.1
2016-12-02T01:48:46.176Z,1013.12
2016-12-02T01:49:24.950Z,1013.16
2016-12-02T01:50:03.730Z,1013.12
2016-12-02T01:50:42.500Z,1013.11
2016-12-02T01:51:21.275Z,1013.15
2016-12-02T01:52:00.052Z,1013.15
2016-12-02T01:52:38.835Z,1013.19
2016-12-02T01:53:17.613Z,1013.15
2016-12-02T01:53:56.388Z,1013.19
2016-12-02T01:54:35.168Z,1013.13
2016-12-02T01:55:13.944Z,1013.16
2016-12-02T01:55:52.717Z,1013.14
2016-12-02T01:56:31.492Z,1013.13
2016-12-02T01:57:10.304Z,1013.1
2016-12-02T01:57:49.071Z,1013.09
2016-12-02T01:58:27.851Z,1013.07
2016-12-02T01:59:06.625Z,1013.1
2016-12-02T01:59:45.403Z,1013.04
2016-12-02T02:00:24.180Z,1013.05
2016-12-02T02:01:02.979Z,1013.06
2016-12-02T02:01:41.766Z,1013.05
2016-12-02T02:02:20.907Z,1013.02
2016-12-02T02:02:59.687Z,1013.06
2016-12-02T02:03:38.466Z,1013.08
2016-12-02T02:04:17.244Z,1012.98
2016-12-02T02:04:56.019Z,1013.02
2016-12-02T02:05:34.788Z,1013.04
2016-12-02T02:06:13.567Z,1013.04
2016-12-02T02:06:52.346Z,1013.07
2016-12-02T02:07:31.124Z,1013.05
2016-12-02T02:08:09.902Z,1013.05
2016-12-02T02:08:48.678Z,1013.03
2016-12-02T02:09:27.484Z,1013.02
2016-12-02T02:10:06.261Z,1012.97
2016-12-02T02:10:45.049Z,1013.02
2016-12-02T02:11:23.821Z,1012.98
2016-12-02T02:12:02.594Z,1013.02
2016-12-02T02:12:41.369Z,1013.02
2016-12-02T02:13:20.147Z,1012.99
2016-12-02T02:13:58.919Z,1013.01
2016-12-02T02:14:37.691Z,1012.95
2016-12-02T02:15:16.494Z,1012.95
2016-12-02T02:15:55.291Z,1013.01
2016-12-02T02:16:34.069Z,1012.97
2016-12-02T02:17:12.842Z,1012.98
2016-12-02T02:17:51.619Z,1012.96
2016-12-02T02:18:30.394Z,1012.87
2016-12-02T02:19:09.172Z,1012.97
2016-12-02T02:19:47.955Z,1012.93
2016-12-02T02:20:26.729Z,1012.97
2016-12-02T02:21:05.507Z,1012.98
2016-12-02T02:21:44.284Z,1012.94
2016-12-02T02:22:23.057Z,1012.98
2016-12-02T02:23:01.836Z,1012.96
2016-12-02T02:23:40.613Z,1012.96
2016-12-02T02:24:19.387Z,1012.99
2016-12-02T02:24:58.160Z,1013.01
2016-12-02T02:25:36.934Z,1012.93
2016-12-02T02:26:15.711Z,1013.01
2016-12-02T02:26:54.487Z,1012.98
2016-12-02T02:27:33.315Z,1013
2016-12-02T02:28:14.095Z,1012.99
2016-12-02T02:28:52.870Z,1013.01
2016-12-02T02:29:31.646Z,1012.97
2016-12-02T02:30:10.424Z,1013.01
2016-12-02T02:30:49.201Z,1013
2016-12-02T02:31:28.032Z,1012.96
2016-12-02T02:32:06.837Z,1013.04
2016-12-02T02:32:45.612Z,1013.06
2016-12-02T02:33:24.383Z,1013.01
2016-12-02T02:34:03.156Z,1012.98
2016-12-02T02:34:41.931Z,1012.96
2016-12-02T02:35:20.708Z,1013.01
2016-12-02T02:35:59.488Z,1012.95
2016-12-02T02:36:38.625Z,1013.01
2016-12-02T02:37:17.405Z,1012.98
2016-12-02T02:37:56.182Z,1013.02
2016-12-02T02:38:35.316Z,1012.93
2016-12-02T02:39:14.092Z,1012.99
2016-12-02T02:39:52.868Z,1013.01
2016-12-02T02:40:31.645Z,1013.02
2016-12-02T02:41:10.428Z,1013
2016-12-02T02:41:49.563Z,1013.01
2016-12-02T02:42:28.341Z,1013.01
2016-12-02T02:43:07.112Z,1013.02
2016-12-02T02:43:45.889Z,1013.04
2016-12-02T02:44:24.667Z,1013
2016-12-02T02:45:03.800Z,1013.05
2016-12-02T02:45:42.581Z,1013.05
2016-12-02T02:46:21.358Z,1013.07
2016-12-02T02:47:00.129Z,1013.06
2016-12-02T02:47:38.905Z,1013.06
2016-12-02T02:48:18.037Z,1013.01
2016-12-02T02:48:56.809Z,1012.99
2016-12-02T02:49:35.581Z,1013.01
2016-12-02T02:50:14.358Z,1012.99
2016-12-02T02:50:53.132Z,1012.99
2016-12-02T02:51:31.910Z,1013
2016-12-02T02:52:10.689Z,1012.97
2016-12-02T02:52:49.466Z,1012.95
2016-12-02T02:53:28.239Z,1012.91
2016-12-02T02:54:07.014Z,1012.95
2016-12-02T02:54:45.790Z,1013.01
2016-12-02T02:55:24.560Z,1012.96
2016-12-02T02:56:03.340Z,1012.97
2016-12-02T02:56:42.121Z,1012.98
2016-12-02T02:57:20.898Z,1012.96
2016-12-02T02:57:59.675Z,1012.93
2016-12-02T02:58:38.458Z,1012.94
2016-12-02T02:59:17.229Z,1012.97
2016-12-02T02:59:56.024Z,1012.94
2016-12-02T03:00:34.801Z,1012.93
2016-12-02T03:01:13.581Z,1012.96
2016-12-02T03:01:52.357Z,1012.86
2016-12-02T03:02:31.131Z,1012.88
2016-12-02T03:03:09.915Z,1012.74
2016-12-02T03:03:48.693Z,1012.83
2016-12-02T03:04:27.496Z,1012.84
2016-12-02T03:05:06.303Z,1012.9
2016-12-02T03:05:45.081Z,1012.83
2016-12-02T03:06:23.861Z,1012.84
2016-12-02T03:07:02.643Z,1012.78
2016-12-02T03:07:41.426Z,1012.82
2016-12-02T03:08:20.204Z,1012.77
2016-12-02T03:08:58.980Z,1012.8
2016-12-02T03:09:37.757Z,1012.78
2016-12-02T03:10:16.534Z,1012.77
2016-12-02T03:10:55.308Z,1012.78
2016-12-02T03:11:34.091Z,1012.71
2016-12-02T03:12:12.876Z,1012.76
2016-12-02T03:12:51.652Z,1012.74
2016-12-02T03:13:30.429Z,1012.7
2016-12-02T03:14:09.203Z,1012.74
2016-12-02T03:14:47.979Z,1012.77
2016-12-02T03:15:26.754Z,1012.78
2016-12-02T03:16:05.550Z,1012.74
2016-12-02T03:16:44.325Z,1012.81
2016-12-02T03:17:23.102Z,1012.81
2016-12-02T03:18:01.880Z,1012.77
2016-12-02T03:18:40.655Z,1012.84
2016-12-02T03:19:19.432Z,1012.85
2016-12-02T03:19:58.209Z,1012.81
2016-12-02T03:20:36.986Z,1012.8
2016-12-02T03:21:15.768Z,1012.85
2016-12-02T03:21:54.546Z,1012.87
2016-12-02T03:22:33.324Z,1012.84
2016-12-02T03:23:12.100Z,1012.88
2016-12-02T03:23:50.874Z,1012.86
2016-12-02T03:24:29.656Z,1012.87
2016-12-02T03:25:08.433Z,1012.9
2016-12-02T03:25:47.208Z,1012.87
2016-12-02T03:26:25.981Z,1012.86
2016-12-02T03:27:04.758Z,1012.86
2016-12-02T03:27:43.532Z,1012.84
2016-12-02T03:28:22.310Z,1012.85
2016-12-02T03:29:01.086Z,1012.81
2016-12-02T03:29:39.866Z,1012.85
2016-12-02T03:30:18.645Z,1012.86
2016-12-02T03:30:57.448Z,1012.86
2016-12-02T03:31:36.234Z,1012.83
2016-12-02T03:32:15.008Z,1012.81
2016-12-02T03:32:53.777Z,1012.81
2016-12-02T03:33:32.554Z,1012.8
2016-12-02T03:34:11.330Z,1012.79
2016-12-02T03:34:50.104Z,1012.85
2016-12-02T03:35:28.906Z,1012.86
2016-12-02T03:36:07.676Z,1012.83
2016-12-02T03:36:46.453Z,1012.86
2016-12-02T03:37:25.238Z,1012.84
2016-12-02T03:38:04.011Z,1012.88
2016-12-02T03:38:42.788Z,1012.89
2016-12-02T03:39:21.572Z,1012.9
2016-12-02T03:40:00.342Z,1012.93
2016-12-02T03:40:39.118Z,1012.94
2016-12-02T03:41:17.894Z,1012.92
2016-12-02T03:41:56.667Z,1012.97
2016-12-02T03:42:35.443Z,1012.92
2016-12-02T03:43:14.223Z,1012.95
2016-12-02T03:43:53.006Z,1012.97
2016-12-02T03:44:31.786Z,1012.92
2016-12-02T03:45:10.562Z,1012.96
2016-12-02T03:45:49.339Z,1012.95
2016-12-02T03:46:28.114Z,1012.95
2016-12-02T03:47:07.242Z,1012.91
2016-12-02T03:47:46.017Z,1012.92
2016-12-02T03:48:24.795Z,1012.93
2016-12-02T03:49:03.570Z,1012.88
2016-12-02T03:49:42.344Z,1012.86
2016-12-02T03:50:21.140Z,1012.91
2016-12-02T03:50:59.913Z,1012.83
2016-12-02T03:51:38.695Z,1012.84
2016-12-02T03:52:17.474Z,1012.85
2016-12-02T03:52:56.251Z,1012.87
2016-12-02T03:53:35.030Z,1012.86
2016-12-02T03:54:13.806Z,1012.85
2016-12-02T03:54:52.586Z,1012.89
2016-12-02T03:55:31.362Z,1012.9
2016-12-02T03:56:10.144Z,1012.88
2016-12-02T03:56:48.925Z,1012.88
2016-12-02T03:57:27.700Z,1012.92
2016-12-02T03:58:06.477Z,1012.91
2016-12-02T03:58:45.251Z,1012.93
2016-12-02T03:59:24.024Z,1012.93
2016-12-02T04:00:02.797Z,1012.92
2016-12-02T04:00:41.574Z,1012.96
2016-12-02T04:01:20.703Z,1012.91
2016-12-02T04:01:59.480Z,1012.92
2016-12-02T04:02:38.250Z,1012.91
2016-12-02T04:03:17.056Z,1012.9
2016-12-02T04:03:55.835Z,1012.92
2016-12-02T04:04:34.618Z,1012.91
2016-12-02T04:05:13.409Z,1012.88
2016-12-02T04:05:52.188Z,1012.92
2016-12-02T04:06:30.965Z,1012.91
2016-12-02T04:07:09.744Z,1012.89
2016-12-02T04:07:48.518Z,1012.9
2016-12-02T04:08:27.294Z,1012.86
2016-12-02T04:09:06.069Z,1012.88
2016-12-02T04:09:44.876Z,1012.86
2016-12-02T04:10:23.649Z,1012.89
2016-12-02T04:11:02.423Z,1012.88
2016-12-02T04:11:41.199Z,1012.89
2016-12-02T04:12:19.976Z,1012.92
2016-12-02T04:12:58.759Z,1012.89
2016-12-02T04:13:37.893Z,1012.86
2016-12-02T04:14:16.695Z,1012.9
2016-12-02T04:14:55.470Z,1012.9
2016-12-02T04:15:34.246Z,1012.87
2016-12-02T04:16:13.024Z,1012.88
2016-12-02T04:16:51.804Z,1012.9
2016-12-02T04:17:30.586Z,1012.83
2016-12-02T04:18:09.717Z,1012.93
2016-12-02T04:18:48.494Z,1012.88
2016-12-02T04:19:27.282Z,1012.87
2016-12-02T04:20:06.059Z,1012.93
2016-12-02T04:20:44.847Z,1012.9
2016-12-02T04:21:23.622Z,1012.91
2016-12-02T04:22:02.395Z,1012.91
2016-12-02T04:22:41.171Z,1012.89
2016-12-02T04:23:19.978Z,1012.92
2016-12-02T04:23:58.754Z,1012.88
2016-12-02T04:24:37.533Z,1012.92
2016-12-02T04:25:16.309Z,1012.93
2016-12-02T04:25:55.095Z,1012.95
2016-12-02T04:26:34.068Z,1012.92
2016-12-02T04:27:12.899Z,1012.9
2016-12-02T04:27:51.670Z,1012.93
2016-12-02T04:28:30.443Z,1012.95
2016-12-02T04:29:09.214Z,1012.92
2016-12-02T04:29:47.993Z,1012.92
2016-12-02T04:30:26.773Z,1012.93
2016-12-02T04:31:05.551Z,1012.91
2016-12-02T04:31:44.326Z,1012.9
2016-12-02T04:32:23.103Z,1012.9
2016-12-02T04:33:01.877Z,1012.86
2016-12-02T04:33:40.679Z,1012.86
2016-12-02T04:34:19.454Z,1012.85
2016-12-02T04:34:58.235Z,1012.89
2016-12-02T04:35:37.012Z,1012.85
2016-12-02T04:36:15.788Z,1012.83
2016-12-02T04:36:54.562Z,1012.86
2016-12-02T04:37:33.336Z,1012.88
2016-12-02T04:38:12.111Z,1012.83
2016-12-02T04:38:50.890Z,1012.83
2016-12-02T04:39:29.664Z,1012.82
2016-12-02T04:40:08.465Z,1012.84
2016-12-02T04:40:47.240Z,1012.87
2016-12-02T04:41:26.016Z,1012.92
2016-12-02T04:42:04.793Z,1012.85
2016-12-02T04:42:43.570Z,1012.86
2016-12-02T04:43:22.347Z,1012.91
2016-12-02T04:44:01.151Z,1012.93
2016-12-02T04:44:39.927Z,1012.95
2016-12-02T04:45:18.736Z,1012.95
2016-12-02T04:45:57.508Z,1012.93
2016-12-02T04:46:36.288Z,1012.9
2016-12-02T04:47:15.067Z,1012.89
2016-12-02T04:47:53.875Z,1012.88
2016-12-02T04:48:32.657Z,1012.92
2016-12-02T04:49:11.437Z,1012.89
2016-12-02T04:49:50.211Z,1012.93
2016-12-02T04:50:28.982Z,1012.9
2016-12-02T04:51:07.759Z,1012.9
2016-12-02T04:51:46.566Z,1012.9
2016-12-02T04:52:25.372Z,1012.92
2016-12-02T04:53:04.147Z,1012.95
2016-12-02T04:53:43.286Z,1012.89
2016-12-02T04:54:22.059Z,1012.94
2016-12-02T04:55:00.841Z,1012.96
2016-12-02T04:55:39.617Z,1012.95
2016-12-02T04:56:18.394Z,1012.95
2016-12-02T04:56:57.173Z,1012.98
2016-12-02T04:57:35.945Z,1012.9
2016-12-02T04:58:14.722Z,1012.95
2016-12-02T04:58:53.494Z,1012.94
2016-12-02T04:59:32.271Z,1012.94
2016-12-02T05:00:11.056Z,1012.92
2016-12-02T05:00:49.835Z,1012.89
2016-12-02T05:01:28.614Z,1012.91
2016-12-02T05:02:07.387Z,1012.92
2016-12-02T05:02:46.175Z,1012.82
2016-12-02T05:03:24.953Z,1012.82
2016-12-02T05:04:03.731Z,1012.78
2016-12-02T05:04:42.516Z,1012.73
2016-12-02T05:05:21.299Z,1012.8
2016-12-02T05:06:00.074Z,1012.79
2016-12-02T05:06:38.853Z,1012.84
2016-12-02T05:07:17.707Z,1012.83
2016-12-02T05:07:56.504Z,1012.81
2016-12-02T05:08:35.287Z,1012.78
2016-12-02T05:09:14.090Z,1012.83
2016-12-02T05:09:52.863Z,1012.83
2016-12-02T05:10:31.639Z,1012.78
2016-12-02T05:11:10.425Z,1012.83
2016-12-02T05:11:49.201Z,1012.81
2016-12-02T05:12:27.983Z,1012.86
2016-12-02T05:13:06.758Z,1012.85
2016-12-02T05:13:45.536Z,1012.9
2016-12-02T05:14:24.311Z,1012.85
2016-12-02T05:15:03.100Z,1012.79
2016-12-02T05:15:41.881Z,1012.85
2016-12-02T05:16:20.658Z,1012.79
2016-12-02T05:16:59.436Z,1012.74
2016-12-02T05:17:38.213Z,1012.86
2016-12-02T05:18:16.993Z,1012.81
2016-12-02T05:18:55.766Z,1012.84
2016-12-02T05:19:34.560Z,1012.83
2016-12-02T05:20:13.339Z,1012.88
2016-12-02T05:20:52.120Z,1012.89
2016-12-02T05:21:30.959Z,1012.89
2016-12-02T05:22:09.735Z,1012.91
2016-12-02T05:22:48.512Z,1012.94
2016-12-02T05:23:27.316Z,1012.95
2016-12-02T05:24:06.095Z,1012.94
2016-12-02T05:24:44.879Z,1012.95
2016-12-02T05:25:23.657Z,1012.98
2016-12-02T05:26:02.464Z,1012.96
2016-12-02T05:26:41.245Z,1012.94
2016-12-02T05:27:20.025Z,1012.96
2016-12-02T05:27:58.808Z,1012.92
2016-12-02T05:28:37.585Z,1012.9
2016-12-02T05:29:16.383Z,1012.92
2016-12-02T05:29:55.156Z,1012.93
2016-12-02T05:30:33.931Z,1012.91
2016-12-02T05:31:12.709Z,1012.94
2016-12-02T05:31:51.487Z,1012.95
2016-12-02T05:32:30.259Z,1012.94
2016-12-02T05:33:09.065Z,1012.97
2016-12-02T05:33:47.845Z,1013.03
2016-12-02T05:34:26.621Z,1013.05
2016-12-02T05:35:05.425Z,1013.04
2016-12-02T05:35:44.219Z,1013.03
2016-12-02T05:36:23.355Z,1013.06
2016-12-02T05:37:02.132Z,1013.07
2016-12-02T05:37:40.911Z,1013.06
2016-12-02T05:38:19.688Z,1013.09
2016-12-02T05:38:58.462Z,1013.07
2016-12-02T05:39:37.242Z,1013
2016-12-02T05:40:16.017Z,1013.04
2016-12-02T05:40:54.794Z,1012.95
2016-12-02T05:41:33.573Z,1012.96
2016-12-02T05:42:12.350Z,1012.97
2016-12-02T05:42:51.129Z,1013.04
2016-12-02T05:43:29.926Z,1013.04
2016-12-02T05:44:08.703Z,1013.06
2016-12-02T05:44:47.543Z,1013.05
2016-12-02T05:45:26.318Z,1013.06
2016-12-02T05:46:05.113Z,1013.06
2016-12-02T05:46:43.910Z,1013.07
2016-12-02T05:47:22.741Z,1013.13
2016-12-02T05:48:01.521Z,1013.13
2016-12-02T05:48:40.306Z,1013.12
2016-12-02T05:49:19.088Z,1013.12
2016-12-02T05:49:58.091Z,1013.08
2016-12-02T05:50:36.864Z,1013.06
2016-12-02T05:51:15.645Z,1013.07
2016-12-02T05:51:54.425Z,1013.05
2016-12-02T05:52:33.199Z,1013.02
2016-12-02T05:53:11.980Z,1013.01
2016-12-02T05:53:50.751Z,1012.97
2016-12-02T05:54:29.533Z,1013
2016-12-02T05:55:08.309Z,1012.99
2016-12-02T05:55:47.087Z,1012.97
2016-12-02T05:56:25.864Z,1012.97
2016-12-02T05:57:04.753Z,1012.96
2016-12-02T05:57:43.565Z,1013.03
2016-12-02T05:58:22.375Z,1013.04
2016-12-02T05:59:01.150Z,1013.04
2016-12-02T05:59:39.930Z,1013.04
2016-12-02T06:00:18.711Z,1013.03
2016-12-02T06:00:57.486Z,1013.09
2016-12-02T06:01:36.267Z,1013.09
2016-12-02T06:02:15.048Z,1013.08
2016-12-02T06:02:53.830Z,1013
2016-12-02T06:03:32.612Z,1013.03
2016-12-02T06:04:11.390Z,1013.05
2016-12-02T06:04:50.167Z,1013.02
2016-12-02T06:05:28.948Z,1012.96
2016-12-02T06:06:07.723Z,1012.96
2016-12-02T06:06:46.503Z,1012.98
2016-12-02T06:07:25.284Z,1013.01
2016-12-02T06:08:04.096Z,1013
2016-12-02T06:08:42.877Z,1013.03
2016-12-02T06:09:21.652Z,1013.01
2016-12-02T06:10:00.427Z,1013.04
2016-12-02T06:10:39.556Z,1013.05
2016-12-02T06:11:18.337Z,1013.06
2016-12-02T06:11:57.123Z,1013.09
2016-12-02T06:12:35.904Z,1013.09
2016-12-02T06:13:14.687Z,1013.07
2016-12-02T06:13:53.474Z,1013
2016-12-02T06:14:32.258Z,1012.98
2016-12-02T06:15:11.036Z,1013
2016-12-02T06:15:49.812Z,1013.02
2016-12-02T06:16:28.595Z,1012.98
2016-12-02T06:17:07.369Z,1012.99
2016-12-02T06:17:46.149Z,1013
2016-12-02T06:18:24.929Z,1012.98
2016-12-02T06:19:03.710Z,1013.04
2016-12-02T06:19:42.500Z,1013.07
2016-12-02T06:20:21.616Z,1013.12
2016-12-02T06:21:00.396Z,1013.11
2016-12-02T06:21:39.175Z,1013.09
2016-12-02T06:22:17.950Z,1013.14
2016-12-02T06:22:56.743Z,1013.11
2016-12-02T06:23:35.522Z,1013.17
2016-12-02T06:24:14.307Z,1013.16
2016-12-02T06:24:53.083Z,1013.11
2016-12-02T06:25:31.860Z,1013.11
2016-12-02T06:26:10.631Z,1013.06
2016-12-02T06:26:49.412Z,1013.08
2016-12-02T06:27:28.186Z,1013.1
2016-12-02T06:28:06.964Z,1013.12
2016-12-02T06:28:45.740Z,1013.08
2016-12-02T06:29:24.513Z,1013.15
2016-12-02T06:30:03.287Z,1013.14
2016-12-02T06:30:42.067Z,1013.16
2016-12-02T06:31:20.842Z,1013.16
2016-12-02T06:31:59.618Z,1013.24
2016-12-02T06:32:38.397Z,1013.26
2016-12-02T06:33:17.173Z,1013.26
2016-12-02T06:33:55.946Z,1013.24
2016-12-02T06:34:34.726Z,1013.25
2016-12-02T06:35:13.502Z,1013.26
2016-12-02T06:35:52.279Z,1013.3
2016-12-02T06:36:31.059Z,1013.29
2016-12-02T06:37:09.838Z,1013.28
2016-12-02T06:37:48.611Z,1013.3
2016-12-02T06:38:27.389Z,1013.29
2016-12-02T06:39:06.164Z,1013.29
2016-12-02T06:39:44.936Z,1013.35
2016-12-02T06:40:23.717Z,1013.26
2016-12-02T06:41:02.519Z,1013.3
2016-12-02T06:41:41.649Z,1013.33
2016-12-02T06:42:20.427Z,1013.36
2016-12-02T06:42:59.203Z,1013.35
2016-12-02T06:43:37.983Z,1013.42
2016-12-02T06:44:16.761Z,1013.39
2016-12-02T06:44:55.892Z,1013.39
2016-12-02T06:45:34.666Z,1013.41
2016-12-02T06:46:13.438Z,1013.43
2016-12-02T06:46:52.212Z,1013.39
2016-12-02T06:47:30.988Z,1013.37
2016-12-02T06:48:09.766Z,1013.39
2016-12-02T06:48:48.541Z,1013.35
2016-12-02T06:49:27.422Z,1013.39
2016-12-02T06:50:06.194Z,1013.41
2016-12-02T06:50:45.322Z,1013.37
2016-12-02T06:51:24.094Z,1013.38
2016-12-02T06:52:02.869Z,1013.39
2016-12-02T06:52:41.644Z,1013.44
2016-12-02T06:53:20.420Z,1013.48
2016-12-02T06:53:59.200Z,1013.46
2016-12-02T06:54:37.983Z,1013.48
2016-12-02T06:55:16.763Z,1013.52
2016-12-02T06:55:55.540Z,1013.45
2016-12-02T06:56:34.315Z,1013.46
2016-12-02T06:57:13.092Z,1013.46
2016-12-02T06:57:51.861Z,1013.44
2016-12-02T06:58:30.634Z,1013.5
2016-12-02T06:59:09.410Z,1013.52
2016-12-02T06:59:48.192Z,1013.51
2016-12-02T07:00:26.972Z,1013.52
2016-12-02T07:01:05.748Z,1013.52
2016-12-02T07:01:44.523Z,1013.57
2016-12-02T07:02:23.300Z,1013.59
2016-12-02T07:03:02.076Z,1013.57
2016-12-02T07:03:40.860Z,1013.58
2016-12-02T07:04:19.645Z,1013.61
2016-12-02T07:04:58.422Z,1013.58
2016-12-02T07:05:37.200Z,1013.58
2016-12-02T07:06:15.971Z,1013.61
2016-12-02T07:06:54.749Z,1013.59
2016-12-02T07:07:33.521Z,1013.58
2016-12-02T07:08:12.296Z,1013.63
2016-12-02T07:08:51.432Z,1013.66
2016-12-02T07:09:30.565Z,1013.67
2016-12-02T07:10:09.349Z,1013.65
2016-12-02T07:10:48.125Z,1013.66
2016-12-02T07:11:26.905Z,1013.72
2016-12-02T07:12:05.680Z,1013.66
2016-12-02T07:12:44.461Z,1013.63
2016-12-02T07:13:23.242Z,1013.64
2016-12-02T07:14:02.024Z,1013.63
2016-12-02T07:14:40.799Z,1013.63
2016-12-02T07:15:19.577Z,1013.63
2016-12-02T07:15:58.362Z,1013.64
2016-12-02T07:16:37.144Z,1013.66
2016-12-02T07:17:15.924Z,1013.64
2016-12-02T07:17:54.699Z,1013.71
2016-12-02T07:18:33.478Z,1013.75
2016-12-02T07:19:12.261Z,1013.79
2016-12-02T07:19:51.045Z,1013.81
2016-12-02T07:20:29.820Z,1013.83
2016-12-02T07:21:08.594Z,1013.83
2016-12-02T07:21:47.368Z,1013.82
2016-12-02T07:22:26.150Z,1013.82
2016-12-02T07:23:04.944Z,1013.82
2016-12-02T07:23:43.719Z,1013.83
2016-12-02T07:24:22.490Z,1013.82
2016-12-02T07:25:01.277Z,1013.8
2016-12-02T07:25:40.054Z,1013.78
2016-12-02T07:26:18.832Z,1013.77
2016-12-02T07:26:57.610Z,1013.84
2016-12-02T07:27:36.386Z,1013.8
2016-12-02T07:28:15.167Z,1013.82
2016-12-02T07:28:53.947Z,1013.82
2016-12-02T07:29:33.434Z,1013.86
2016-12-02T07:30:12.222Z,1013.83
2016-12-02T07:30:50.997Z,1013.83
2016-12-02T07:31:29.776Z,1013.84
2016-12-02T07:32:08.552Z,1013.89
2016-12-02T07:32:47.331Z,1013.89
2016-12-02T07:33:26.108Z,1013.86
2016-12-02T07:34:04.887Z,1013.87
2016-12-02T07:34:43.668Z,1013.89
2016-12-02T07:35:22.448Z,1013.9
2016-12-02T07:36:01.221Z,1013.92
2016-12-02T07:36:39.997Z,1013.94
2016-12-02T07:37:18.774Z,1013.95
2016-12-02T07:37:57.555Z,1013.89
2016-12-02T07:38:36.336Z,1013.92
2016-12-02T07:39:15.120Z,1013.96
2016-12-02T07:39:53.893Z,1013.95
2016-12-02T07:40:32.674Z,1013.96
2016-12-02T07:41:11.453Z,1014.02
2016-12-02T07:41:50.236Z,1014.02
2016-12-02T07:42:29.011Z,1013.99
2016-12-02T07:43:07.827Z,1014.02
2016-12-02T07:43:46.605Z,1014.02
2016-12-02T07:44:25.388Z,1014.08
2016-12-02T07:45:04.167Z,1014.1
2016-12-02T07:45:42.960Z,1014.12
2016-12-02T07:46:21.744Z,1014.13
2016-12-02T07:47:00.552Z,1014.17
2016-12-02T07:47:39.329Z,1014.14
2016-12-02T07:48:18.105Z,1014.17
2016-12-02T07:48:56.886Z,1014.16
2016-12-02T07:49:35.666Z,1014.15
2016-12-02T07:50:14.444Z,1014.13
2016-12-02T07:50:53.221Z,1014.11